createdAt,value
2019-05-07T00:02:24.879Z,13.27
2019-05-07T00:04:55.180Z,12.23
2019-05-07T00:07:31.576Z,13.70
2019-05-07T00:10:00.226Z,16.57
2019-05-07T00:12:32.286Z,16.00
2019-05-07T00:15:04.350Z,12.23
2019-05-07T00:17:34.734Z,16.50
2019-05-07T00:20:04.507Z,20.37
2019-05-07T00:22:35.978Z,14.23
2019-05-07T00:25:07.182Z,14.40
2019-05-07T00:27:35.661Z,17.73
2019-05-07T00:30:06.211Z,16.53
2019-05-07T00:32:37.342Z,13.73
2019-05-07T00:35:09.745Z,13.73
2019-05-07T00:37:48.626Z,13.90
2019-05-07T00:40:32.094Z,13.13
2019-05-07T00:43:04.313Z,13.23
2019-05-07T00:45:46.323Z,15.17
2019-05-07T00:48:16.420Z,16.43
2019-05-07T00:50:46.422Z,14.20
2019-05-07T00:53:17.504Z,17.63
2019-05-07T00:55:52.461Z,14.57
2019-05-07T00:58:25.716Z,14.57
2019-05-07T01:00:52.965Z,12.87
2019-05-07T01:03:22.200Z,15.10
2019-05-07T01:05:52.679Z,13.57
2019-05-07T01:08:22.558Z,14.53
2019-05-07T01:10:54.120Z,14.90
2019-05-07T01:13:23.395Z,12.77
2019-05-07T01:15:54.188Z,16.03
2019-05-07T01:18:23.423Z,14.83
2019-05-07T01:20:55.127Z,14.53
2019-05-07T01:23:23.595Z,13.97
2019-05-07T01:25:52.822Z,16.40
2019-05-07T01:28:22.409Z,14.60
2019-05-07T01:30:54.414Z,15.30
2019-05-07T01:33:42.605Z,14.73
2019-05-07T01:36:13.236Z,12.80
2019-05-07T01:38:42.718Z,15.00
2019-05-07T01:41:13.405Z,15.30
2019-05-07T01:43:42.886Z,14.87
2019-05-07T01:46:12.396Z,15.53
2019-05-07T01:48:44.476Z,15.70
2019-05-07T01:51:13.046Z,15.80
2019-05-07T01:53:46.157Z,13.63
2019-05-07T01:56:17.279Z,15.13
2019-05-07T01:58:48.762Z,13.00
2019-05-07T02:01:25.900Z,15.80
2019-05-07T02:04:12.769Z,14.43
2019-05-07T02:06:59.374Z,14.67
2019-05-07T02:09:45.830Z,17.70
2019-05-07T02:12:15.856Z,15.97
2019-05-07T02:14:44.514Z,14.93
2019-05-07T02:17:17.881Z,15.37
2019-05-07T02:19:44.843Z,16.23
2019-05-07T02:22:16.561Z,15.00
2019-05-07T02:24:46.613Z,15.40
2019-05-07T02:27:17.984Z,17.90
2019-05-07T02:29:46.385Z,13.53
2019-05-07T02:32:14.789Z,13.47
2019-05-07T02:34:44.180Z,15.57
2019-05-07T02:37:15.082Z,15.37
2019-05-07T02:39:48.135Z,12.63
2019-05-07T02:42:16.524Z,12.83
2019-05-07T02:45:04.022Z,14.43
2019-05-07T02:47:34.724Z,13.70
2019-05-07T02:50:08.966Z,15.60
2019-05-07T02:52:53.661Z,16.53
2019-05-07T02:55:25.886Z,16.67
2019-05-07T02:57:54.427Z,14.53
2019-05-07T03:00:24.202Z,16.87
2019-05-07T03:02:57.390Z,14.43
2019-05-07T03:05:26.180Z,19.67
2019-05-07T03:07:54.651Z,16.03
2019-05-07T03:10:23.908Z,13.70
2019-05-07T03:12:53.689Z,14.53
2019-05-07T03:15:24.903Z,17.63
2019-05-07T03:17:53.986Z,14.30
2019-05-07T03:20:27.391Z,18.03
2019-05-07T03:23:03.103Z,14.70
2019-05-07T03:25:49.016Z,13.77
2019-05-07T03:28:24.624Z,15.93
2019-05-07T03:31:05.853Z,15.30
2019-05-07T03:33:55.435Z,15.57
2019-05-07T03:36:46.724Z,13.70
2019-05-07T03:39:14.059Z,15.73
2019-05-07T03:41:43.328Z,16.33
2019-05-07T03:44:16.951Z,15.77
2019-05-07T03:47:01.126Z,15.23
2019-05-07T03:49:29.149Z,18.77
2019-05-07T03:52:03.878Z,19.57
2019-05-07T03:54:34.264Z,18.53
2019-05-07T03:57:10.761Z,16.80
2019-05-07T03:59:34.404Z,17.70
2019-05-07T04:02:06.546Z,16.67
2019-05-07T04:04:35.006Z,21.73
2019-05-07T04:07:14.204Z,14.67
2019-05-07T04:09:43.715Z,20.83
2019-05-07T04:12:14.374Z,15.83
2019-05-07T04:14:47.235Z,17.83
2019-05-07T04:17:22.445Z,17.33
2019-05-07T04:19:46.901Z,16.23
2019-05-07T04:22:16.983Z,16.60
2019-05-07T04:25:13.248Z,13.57
2019-05-07T04:27:46.915Z,17.70
2019-05-07T04:30:15.130Z,15.20
2019-05-07T04:32:45.200Z,16.37
2019-05-07T04:35:27.252Z,15.70
2019-05-07T04:37:55.796Z,17.97
2019-05-07T04:40:27.142Z,16.10
2019-05-07T04:42:57.381Z,14.87
2019-05-07T04:45:30.106Z,18.30
2019-05-07T04:47:58.520Z,19.90
2019-05-07T04:50:42.056Z,15.60
2019-05-07T04:53:02.806Z,14.47
2019-05-07T04:55:33.507Z,14.80
2019-05-07T04:58:03.400Z,18.77
2019-05-07T05:00:39.424Z,17.03
2019-05-07T05:03:12.994Z,18.30
2019-05-07T05:05:43.583Z,15.80
2019-05-07T05:08:13.381Z,15.83
2019-05-07T05:10:45.847Z,14.40
2019-05-07T05:13:14.509Z,17.03
2019-05-07T05:15:43.287Z,15.60
2019-05-07T05:18:13.285Z,13.53
2019-05-07T05:20:48.853Z,15.17
2019-05-07T05:23:22.746Z,12.33
2019-05-07T05:25:52.226Z,12.20
2019-05-07T05:28:23.921Z,12.50
2019-05-07T05:30:56.644Z,12.10
2019-05-07T05:33:25.110Z,11.80
2019-05-07T05:35:56.194Z,11.47
2019-05-07T05:38:24.594Z,9.90
2019-05-07T05:40:53.877Z,10.90
2019-05-07T05:43:39.859Z,11.40
2019-05-07T05:46:11.934Z,11.70
2019-05-07T05:48:43.046Z,14.50
2019-05-07T05:51:28.291Z,11.93
2019-05-07T05:54:04.442Z,11.70
2019-05-07T05:56:37.640Z,12.50
2019-05-07T05:59:12.118Z,11.10
2019-05-07T06:01:48.579Z,13.43
2019-05-07T06:04:24.463Z,16.00
2019-05-07T06:07:14.755Z,12.60
2019-05-07T06:09:54.547Z,13.17
2019-05-07T06:12:32.629Z,11.37
2019-05-07T06:15:02.516Z,10.53
2019-05-07T06:17:42.497Z,11.90
2019-05-07T06:20:15.599Z,12.27
2019-05-07T06:23:02.053Z,11.83
2019-05-07T06:25:33.408Z,9.80
2019-05-07T06:28:01.924Z,10.83
2019-05-07T06:30:30.750Z,13.20
2019-05-07T06:33:04.634Z,8.93
2019-05-07T06:35:42.900Z,12.33
2019-05-07T06:38:13.711Z,11.13
2019-05-07T06:40:46.592Z,12.27
2019-05-07T06:43:28.871Z,11.00
2019-05-07T06:45:58.947Z,8.53
2019-05-07T06:48:38.983Z,12.70
2019-05-07T06:51:02.924Z,10.03
2019-05-07T06:53:39.562Z,9.73
2019-05-07T06:56:08.021Z,11.67
2019-05-07T06:58:38.065Z,16.23
2019-05-07T07:01:16.933Z,11.93
2019-05-07T07:04:08.231Z,12.07
2019-05-07T07:06:52.335Z,12.77
2019-05-07T07:09:42.304Z,15.80
2019-05-07T07:12:14.698Z,12.67
2019-05-07T07:14:43.169Z,13.17
2019-05-07T07:17:12.953Z,12.77
2019-05-07T07:19:52.335Z,13.20
2019-05-07T07:22:22.390Z,12.57
2019-05-07T07:24:53.003Z,12.73
2019-05-07T07:27:22.696Z,22.53
2019-05-07T07:30:12.837Z,11.50
2019-05-07T07:32:48.900Z,9.63
2019-05-07T07:35:19.015Z,12.73
2019-05-07T07:37:52.887Z,10.30
2019-05-07T07:40:23.194Z,10.37
2019-05-07T07:42:53.236Z,47.33
2019-05-07T07:45:23.037Z,15.20
2019-05-07T07:47:59.447Z,19.43
2019-05-07T07:50:32.386Z,14.30
2019-05-07T07:53:02.487Z,12.50
2019-05-07T07:55:33.107Z,17.63
2019-05-07T07:58:06.053Z,13.13
2019-05-07T08:00:42.886Z,13.97
2019-05-07T08:03:13.518Z,14.37
2019-05-07T08:05:42.698Z,11.20
2019-05-07T08:08:12.818Z,12.13
2019-05-07T08:10:42.801Z,12.30
2019-05-07T08:13:12.243Z,12.68
2019-05-07T08:15:43.037Z,10.95
2019-05-07T08:18:15.819Z,12.15
2019-05-07T08:20:43.032Z,11.57
2019-05-07T08:23:16.583Z,11.15
2019-05-07T08:25:52.545Z,10.80
2019-05-07T08:28:25.668Z,10.93
2019-05-07T08:31:12.268Z,9.68
2019-05-07T08:33:42.634Z,12.70
2019-05-07T08:36:14.798Z,13.87
2019-05-07T08:38:53.215Z,12.20
2019-05-07T08:41:24.510Z,14.03
2019-05-07T08:44:08.220Z,13.98
2019-05-07T08:46:45.799Z,28.60
2019-05-07T08:49:33.342Z,15.55
2019-05-07T08:52:03.619Z,9.50
2019-05-07T08:54:35.397Z,12.23
2019-05-07T08:57:03.908Z,20.08
2019-05-07T08:59:34.071Z,11.05
2019-05-07T09:02:07.167Z,16.97
2019-05-07T09:04:37.317Z,10.63
2019-05-07T09:07:17.996Z,9.90
2019-05-07T09:09:48.064Z,13.20
2019-05-07T09:12:22.994Z,11.15
2019-05-07T09:14:52.992Z,13.15
2019-05-07T09:17:23.985Z,10.18
2019-05-07T09:19:54.942Z,10.80
2019-05-07T09:22:28.747Z,9.85
2019-05-07T09:24:57.185Z,9.15
2019-05-07T09:27:33.092Z,8.03
2019-05-07T09:30:08.934Z,8.60
2019-05-07T09:32:51.990Z,11.15
2019-05-07T09:35:24.259Z,9.08
2019-05-07T09:37:55.591Z,10.80
2019-05-07T09:40:26.959Z,11.53
2019-05-07T09:42:55.706Z,11.53
2019-05-07T09:45:25.830Z,13.90
2019-05-07T09:47:54.635Z,13.48
2019-05-07T09:50:23.073Z,10.25
2019-05-07T09:52:51.941Z,9.70
2019-05-07T09:55:23.811Z,8.93
2019-05-07T09:57:52.723Z,7.55
2019-05-07T10:00:25.356Z,8.40
2019-05-07T10:02:56.869Z,7.67
2019-05-07T10:05:28.218Z,9.63
2019-05-07T10:07:56.787Z,10.23
2019-05-07T10:10:25.252Z,6.35
2019-05-07T10:13:04.059Z,8.38
2019-05-07T10:15:33.132Z,8.45
2019-05-07T10:18:18.393Z,8.98
2019-05-07T10:20:48.653Z,6.45
2019-05-07T10:23:22.418Z,8.63
2019-05-07T10:25:51.554Z,5.83
2019-05-07T10:28:23.042Z,7.05
2019-05-07T10:30:52.882Z,7.45
2019-05-07T10:33:22.865Z,12.50
2019-05-07T10:35:52.855Z,7.75
2019-05-07T10:38:22.214Z,8.38
2019-05-07T10:40:50.975Z,6.50
2019-05-07T10:43:22.095Z,8.18
2019-05-07T10:45:55.770Z,12.50
2019-05-07T10:48:25.975Z,7.12
2019-05-07T10:51:04.919Z,6.80
2019-05-07T10:53:34.185Z,10.68
2019-05-07T10:56:02.811Z,7.45
2019-05-07T10:58:32.184Z,6.22
2019-05-07T11:01:03.098Z,4.85
2019-05-07T11:03:32.359Z,6.58
2019-05-07T11:06:01.769Z,5.95
2019-05-07T11:08:32.726Z,9.08
2019-05-07T11:11:02.902Z,5.90
2019-05-07T11:13:34.277Z,5.95
2019-05-07T11:16:04.568Z,6.55
2019-05-07T11:18:37.579Z,5.22
2019-05-07T11:21:07.953Z,6.58
2019-05-07T11:23:41.769Z,7.00
2019-05-07T11:26:11.757Z,5.37
2019-05-07T11:28:43.326Z,8.08
2019-05-07T11:31:17.909Z,5.83
2019-05-07T11:33:48.712Z,9.35
2019-05-07T11:36:17.224Z,5.95
2019-05-07T11:38:45.656Z,4.50
2019-05-07T11:41:14.143Z,6.58
2019-05-07T11:43:58.531Z,4.55
2019-05-07T11:46:34.443Z,5.30
2019-05-07T11:49:22.810Z,5.80
2019-05-07T11:51:55.566Z,5.08
2019-05-07T11:54:24.356Z,5.58
2019-05-07T11:56:58.953Z,4.80
2019-05-07T11:59:27.355Z,4.65
2019-05-07T12:01:57.668Z,3.87
2019-05-07T12:04:27.872Z,5.20
2019-05-07T12:07:02.453Z,4.33
2019-05-07T12:09:26.641Z,5.42
2019-05-07T12:11:55.318Z,4.72
2019-05-07T12:14:32.564Z,5.08
2019-05-07T12:16:59.466Z,4.33
2019-05-07T12:19:28.810Z,5.15
2019-05-07T12:21:57.209Z,5.92
2019-05-07T12:24:25.954Z,4.10
2019-05-07T12:26:57.717Z,5.83
2019-05-07T12:29:27.257Z,5.10
2019-05-07T12:31:57.518Z,4.00
2019-05-07T12:34:33.882Z,5.65
2019-05-07T12:37:08.315Z,5.62
2019-05-07T12:39:42.326Z,3.95
2019-05-07T12:42:12.049Z,5.47
2019-05-07T12:44:42.530Z,3.70
2019-05-07T12:47:14.461Z,4.35
2019-05-07T12:49:44.576Z,5.28
2019-05-07T12:52:22.639Z,6.22
2019-05-07T12:54:55.326Z,5.40
2019-05-07T12:57:23.686Z,5.08
2019-05-07T12:59:52.961Z,5.72
2019-05-07T13:02:40.863Z,4.78
2019-05-07T13:05:07.148Z,8.65
2019-05-07T13:07:37.350Z,11.18
2019-05-07T13:10:08.859Z,5.80
2019-05-07T13:12:42.011Z,5.40
2019-05-07T13:15:24.383Z,11.60
2019-05-07T13:17:45.543Z,12.07
2019-05-07T13:20:14.820Z,5.03
2019-05-07T13:22:43.262Z,5.65
2019-05-07T13:25:12.264Z,6.05
2019-05-07T13:27:42.716Z,4.25
2019-05-07T13:30:11.882Z,6.97
2019-05-07T13:32:46.637Z,11.33
2019-05-07T13:35:15.824Z,5.60
2019-05-07T13:37:47.154Z,7.78
2019-05-07T13:40:18.029Z,3.83
2019-05-07T13:43:02.776Z,5.70
2019-05-07T13:45:32.432Z,3.60
2019-05-07T13:48:12.151Z,3.92
2019-05-07T13:50:42.011Z,6.22
2019-05-07T13:53:12.324Z,7.12
2019-05-07T13:55:42.326Z,3.75
2019-05-07T13:58:14.033Z,6.47
2019-05-07T14:00:43.570Z,4.90
2019-05-07T14:03:13.326Z,4.20
2019-05-07T14:05:44.862Z,6.65
2019-05-07T14:08:17.048Z,5.92
2019-05-07T14:10:45.579Z,7.00
2019-05-07T14:13:17.458Z,3.70
2019-05-07T14:16:04.652Z,4.72
2019-05-07T14:18:34.773Z,4.83
2019-05-07T14:21:04.471Z,4.25
2019-05-07T14:23:33.297Z,6.92
2019-05-07T14:26:08.479Z,3.83
2019-05-07T14:28:42.152Z,5.08
2019-05-07T14:31:15.341Z,4.60
2019-05-07T14:33:57.268Z,5.12
2019-05-07T14:36:39.163Z,3.75
2019-05-07T14:39:10.732Z,5.90
2019-05-07T14:41:46.420Z,4.10
2019-05-07T14:44:16.463Z,5.58
2019-05-07T14:46:50.734Z,9.15
2019-05-07T14:49:15.299Z,14.15
2019-05-07T14:51:43.989Z,9.68
2019-05-07T14:54:18.584Z,4.78
2019-05-07T14:56:46.974Z,3.42
2019-05-07T14:59:18.447Z,4.53
2019-05-07T15:01:46.905Z,3.70
2019-05-07T15:04:15.437Z,4.87
2019-05-07T15:06:46.530Z,5.22
2019-05-07T15:09:14.039Z,4.58
2019-05-07T15:11:42.872Z,7.80
2019-05-07T15:14:14.497Z,5.28
2019-05-07T15:16:43.793Z,3.72
2019-05-07T15:19:13.974Z,4.05
2019-05-07T15:21:43.659Z,5.40
2019-05-07T15:24:14.131Z,3.67
2019-05-07T15:26:46.695Z,5.95
2019-05-07T15:29:18.054Z,3.67
2019-05-07T15:31:57.054Z,4.45
2019-05-07T15:34:25.512Z,5.60
2019-05-07T15:36:53.972Z,6.80
2019-05-07T15:39:25.289Z,14.23
2019-05-07T15:41:53.689Z,8.25
2019-05-07T15:44:24.846Z,10.30
2019-05-07T15:46:54.874Z,8.50
2019-05-07T15:49:27.817Z,5.73
2019-05-07T15:52:03.935Z,13.73
2019-05-07T15:54:32.655Z,7.47
2019-05-07T15:57:06.389Z,3.80
2019-05-07T15:59:34.786Z,6.43
2019-05-07T16:02:12.255Z,4.50
2019-05-07T16:04:40.358Z,4.97
2019-05-07T16:07:13.349Z,5.60
2019-05-07T16:09:45.042Z,5.10
2019-05-07T16:12:15.070Z,5.70
2019-05-07T16:14:43.453Z,4.33
2019-05-07T16:17:15.302Z,4.27
2019-05-07T16:19:46.744Z,5.50
2019-05-07T16:22:18.346Z,5.03
2019-05-07T16:24:49.969Z,4.33
2019-05-07T16:27:22.450Z,7.47
2019-05-07T16:29:53.121Z,6.47
2019-05-07T16:32:23.919Z,4.73
2019-05-07T16:34:57.496Z,5.30
2019-05-07T16:37:25.926Z,4.13
2019-05-07T16:39:54.554Z,3.70
2019-05-07T16:42:22.953Z,3.83
2019-05-07T16:44:52.337Z,3.80
2019-05-07T16:47:22.858Z,9.17
2019-05-07T16:49:51.697Z,5.87
2019-05-07T16:52:22.465Z,6.10
2019-05-07T16:54:55.898Z,11.47
2019-05-07T16:57:38.018Z,5.97
2019-05-07T17:00:09.717Z,5.47
2019-05-07T17:02:42.777Z,5.77
2019-05-07T17:05:17.510Z,4.17
2019-05-07T17:07:52.141Z,5.03
2019-05-07T17:10:23.597Z,4.87
2019-05-07T17:12:52.544Z,7.20
2019-05-07T17:15:22.890Z,4.17
2019-05-07T17:18:04.071Z,4.20
2019-05-07T17:20:32.996Z,5.03
2019-05-07T17:23:03.776Z,4.50
2019-05-07T17:25:42.652Z,6.73
2019-05-07T17:28:12.615Z,9.60
2019-05-07T17:30:42.147Z,4.47
2019-05-07T17:33:13.030Z,4.10
2019-05-07T17:35:42.318Z,6.17
2019-05-07T17:38:13.141Z,4.37
2019-05-07T17:40:42.385Z,3.60
2019-05-07T17:43:18.792Z,3.87
2019-05-07T17:45:49.213Z,3.70
2019-05-07T17:48:20.599Z,4.90
2019-05-07T17:50:58.079Z,4.57
2019-05-07T17:53:27.121Z,3.67
2019-05-07T17:55:55.690Z,6.90
2019-05-07T17:58:32.416Z,4.97
2019-05-07T18:01:02.780Z,3.43
2019-05-07T18:03:38.823Z,6.03
2019-05-07T18:06:08.599Z,5.67
2019-05-07T18:08:39.544Z,6.00
2019-05-07T18:11:20.290Z,5.70
2019-05-07T18:13:38.473Z,3.70
2019-05-07T18:16:08.841Z,3.63
2019-05-07T18:18:40.023Z,3.00
2019-05-07T18:21:09.785Z,3.80
2019-05-07T18:23:39.720Z,3.97
2019-05-07T18:26:26.312Z,5.63
2019-05-07T18:28:42.483Z,7.30
2019-05-07T18:31:12.619Z,9.63
2019-05-07T18:33:45.778Z,7.83
2019-05-07T18:36:14.223Z,4.57
2019-05-07T18:38:42.719Z,5.73
2019-05-07T18:41:12.175Z,2.70
2019-05-07T18:43:44.201Z,4.23
2019-05-07T18:46:13.078Z,5.30
2019-05-07T18:48:42.619Z,3.23
2019-05-07T18:51:12.190Z,4.23
2019-05-07T18:53:42.916Z,4.50
2019-05-07T18:56:12.647Z,5.07
2019-05-07T18:58:42.598Z,5.63
2019-05-07T19:01:13.798Z,4.37
2019-05-07T19:03:42.527Z,4.17
2019-05-07T19:06:13.522Z,5.90
2019-05-07T19:08:42.444Z,7.97
2019-05-07T19:11:12.383Z,4.03
2019-05-07T19:13:41.992Z,5.63
2019-05-07T19:16:12.553Z,9.27
2019-05-07T19:18:43.088Z,8.27
2019-05-07T19:21:11.806Z,5.97
2019-05-07T19:23:42.373Z,8.23
2019-05-07T19:26:13.141Z,5.50
2019-05-07T19:28:41.809Z,4.93
2019-05-07T19:31:12.297Z,3.90
2019-05-07T19:33:41.939Z,3.57
2019-05-07T19:36:11.075Z,4.93
2019-05-07T19:38:41.878Z,8.73
2019-05-07T19:41:12.193Z,8.23
2019-05-07T19:43:41.979Z,4.20
2019-05-07T19:46:13.415Z,6.00
2019-05-07T19:48:43.850Z,5.10
2019-05-07T19:51:14.592Z,7.30
2019-05-07T19:53:43.174Z,2.63
2019-05-07T19:56:16.227Z,3.90
2019-05-07T19:58:44.692Z,6.23
2019-05-07T20:01:14.957Z,3.20
2019-05-07T20:03:43.564Z,2.70
2019-05-07T20:06:16.760Z,5.23
2019-05-07T20:08:47.260Z,4.93
2019-05-07T20:11:17.385Z,6.40
2019-05-07T20:13:47.469Z,5.23
2019-05-07T20:16:22.934Z,4.13
2019-05-07T20:18:52.705Z,3.43
2019-05-07T20:21:27.294Z,3.70
2019-05-07T20:23:57.424Z,6.63
2019-05-07T20:26:25.838Z,4.00
2019-05-07T20:28:54.251Z,6.20
2019-05-07T20:31:24.114Z,6.37
2019-05-07T20:33:53.111Z,5.97
2019-05-07T20:36:25.469Z,6.50
2019-05-07T20:38:54.109Z,6.87
2019-05-07T20:41:25.621Z,4.87
2019-05-07T20:43:56.913Z,3.40
2019-05-07T20:46:25.317Z,4.80
2019-05-07T20:48:53.809Z,3.00
2019-05-07T20:51:24.569Z,3.90
2019-05-07T20:54:14.168Z,6.00
2019-05-07T20:57:02.643Z,5.50
2019-05-07T20:59:32.771Z,5.30
2019-05-07T21:02:02.318Z,4.00
2019-05-07T21:04:32.987Z,3.30
2019-05-07T21:07:02.186Z,3.47
2019-05-07T21:09:32.843Z,3.37
2019-05-07T21:12:01.601Z,5.00
2019-05-07T21:14:32.281Z,6.23
2019-05-07T21:17:00.485Z,7.07
2019-05-07T21:19:28.905Z,3.90
2019-05-07T21:22:01.999Z,4.80
2019-05-07T21:24:30.107Z,4.23
2019-05-07T21:26:58.578Z,5.87
2019-05-07T21:29:28.615Z,4.17
2019-05-07T21:31:58.451Z,3.90
2019-05-07T21:34:28.798Z,5.70
2019-05-07T21:37:00.142Z,5.77
2019-05-07T21:39:34.430Z,4.70
2019-05-07T21:42:04.805Z,6.73
2019-05-07T21:44:34.768Z,5.37
2019-05-07T21:47:03.841Z,9.90
2019-05-07T21:49:32.950Z,4.90
2019-05-07T21:52:01.950Z,4.50
2019-05-07T21:54:38.775Z,8.73
2019-05-07T21:57:25.139Z,5.40
2019-05-07T21:59:55.200Z,4.43
2019-05-07T22:02:29.902Z,3.77
2019-05-07T22:04:58.615Z,4.27
2019-05-07T22:07:28.348Z,6.13
2019-05-07T22:09:56.805Z,4.57
2019-05-07T22:12:25.271Z,3.90
2019-05-07T22:14:56.472Z,5.57
2019-05-07T22:17:30.964Z,6.40
2019-05-07T22:19:59.618Z,6.53
2019-05-07T22:22:32.005Z,5.57
2019-05-07T22:25:04.971Z,3.90
2019-05-07T22:27:32.740Z,9.03
2019-05-07T22:30:03.485Z,5.87
2019-05-07T22:32:36.327Z,8.00
2019-05-07T22:35:12.078Z,5.80
2019-05-07T22:37:41.358Z,5.17
2019-05-07T22:40:12.859Z,8.67
2019-05-07T22:42:42.111Z,5.20
2019-05-07T22:45:13.751Z,5.20
2019-05-07T22:47:42.149Z,8.60
2019-05-07T22:50:11.974Z,7.00
2019-05-07T22:52:40.984Z,7.33
2019-05-07T22:55:09.546Z,4.83
2019-05-07T22:57:48.908Z,8.80
2019-05-07T23:00:19.070Z,7.00
2019-05-07T23:02:47.553Z,4.87
2019-05-07T23:05:17.475Z,6.97
2019-05-07T23:07:45.936Z,8.00
2019-05-07T23:10:14.404Z,7.63
2019-05-07T23:12:45.767Z,5.13
2019-05-07T23:15:22.587Z,5.80
2019-05-07T23:17:52.026Z,8.63
2019-05-07T23:20:26.993Z,7.63
2019-05-07T23:22:55.440Z,5.20
2019-05-07T23:25:24.555Z,7.83
2019-05-07T23:27:59.232Z,6.70
2019-05-07T23:30:34.449Z,4.87
2019-05-07T23:33:02.870Z,9.97
2019-05-07T23:35:32.874Z,8.77
2019-05-07T23:38:02.478Z,8.13
2019-05-07T23:40:52.661Z,6.97
2019-05-07T23:43:24.245Z,8.30
2019-05-07T23:45:52.881Z,5.73
2019-05-07T23:48:22.844Z,6.43
2019-05-07T23:50:54.081Z,6.30
2019-05-07T23:53:22.597Z,7.07
2019-05-07T23:55:52.027Z,5.10
2019-05-07T23:58:24.573Z,5.87
